Time;durP1;ratioP1;P1;durP2;ratioP2;P2;SDS_P1;SDS_P2;PMS_P1;PMS_P2;Temp;Humidity;BMP_temperature;BMP_pressure;BME280_temperature;BME280_humidity;BME280_pressure;Samples;Min_cycle;Max_cycle;Signal;HPM_P1;HPM_P2
2022/12/11 00:00:25;;;;;;;;;5.50;4.25;;;;;-0.31;96.95;97250.44;4923484;28;104146;-68
2022/12/11 00:02:53;;;;;;;;;6.00;5.00;;;;;-0.36;96.69;97245.63;4943198;28;102173;-68
2022/12/11 00:05:20;;;;;;;;;9.00;6.67;;;;;-0.39;96.64;97245.97;4968515;28;102149;-68
2022/12/11 00:07:47;;;;;;;;;7.33;5.00;;;;;-0.37;96.53;97245.81;4967845;28;102027;-69
2022/12/11 00:10:14;;;;;;;;;11.75;7.00;;;;;-0.44;96.56;97227.03;4971536;28;104003;-69
2022/12/11 00:12:41;;;;;;;;;11.67;6.00;;;;;-0.46;96.72;97231.69;4962138;28;102500;-70
2022/12/11 00:15:10;;;;;;;;;6.33;5.00;;;;;-0.46;97.47;97221.09;4968858;28;102349;-69
2022/12/11 00:17:37;;;;;;;;;6.00;5.00;;;;;-0.50;97.21;97231.22;4982251;28;102337;-69
2022/12/11 00:20:05;;;;;;;;;10.33;6.33;;;;;-0.51;97.40;97212.78;4957339;28;104062;-69
2022/12/11 00:22:32;;;;;;;;;8.67;6.00;;;;;-0.64;96.64;97193.88;4958081;28;102026;-69
2022/12/11 00:24:59;;;;;;;;;7.33;7.33;;;;;-0.59;97.76;97210.97;4943887;28;102487;-69
2022/12/11 00:27:27;;;;;;;;;6.00;5.33;;;;;-0.50;97.51;97199.34;4974009;28;102747;-69
2022/12/11 00:29:54;;;;;;;;;1.00;0.00;;;;;-0.59;97.25;97210.13;4969241;28;104661;-70
2022/12/11 00:32:21;;;;;;;;;17.00;15.33;;;;;-0.88;97.15;97176.09;4971656;28;102408;-69
2022/12/11 00:34:48;;;;;;;;;14.67;12.00;;;;;-0.71;97.91;97196.34;4967238;28;102119;-70
2022/12/11 00:37:15;;;;;;;;;12.00;11.33;;;;;-0.67;97.53;97196.84;4980534;28;102188;-69
2022/12/11 00:39:42;;;;;;;;;19.00;12.67;;;;;-0.66;97.36;97214.44;4977219;28;103989;-70
2022/12/11 00:42:09;;;;;;;;;13.00;11.67;;;;;-0.66;98.02;97207.31;4974694;28;102347;-69
2022/12/11 00:44:36;;;;;;;;;14.67;12.00;;;;;-0.70;97.47;97194.53;4956859;28;102354;-68
2022/12/11 00:47:03;;;;;;;;;15.00;12.00;;;;;-0.68;96.96;97200.50;4971375;28;102207;-69
2022/12/11 00:49:30;;;;;;;;;12.00;11.00;;;;;-0.74;97.73;97199.34;4970240;28;103967;-69
2022/12/11 00:51:57;;;;;;;;;17.00;12.00;;;;;-0.74;97.81;97201.16;4966228;28;102217;-69
2022/12/11 00:54:24;;;;;;;;;15.67;13.67;;;;;-0.73;98.05;97194.88;4967708;28;102435;-69
2022/12/11 00:56:51;;;;;;;;;16.67;15.33;;;;;-0.78;98.50;97191.88;4933410;28;102612;-69
2022/12/11 00:59:18;;;;;;;;;11.67;8.00;;;;;-0.78;97.79;97195.34;4968610;28;104349;-69
2022/12/11 01:01:45;;;;;;;;;13.00;11.00;;;;;-0.71;97.47;97198.16;4976949;28;101978;-69
2022/12/11 01:04:12;;;;;;;;;13.33;11.67;;;;;-0.69;97.30;97202.34;4980054;28;102098;-69
2022/12/11 01:06:39;;;;;;;;;11.33;9.67;;;;;-0.72;96.90;97197.34;4959341;28;102210;-68
2022/12/11 01:11:51;;;;;;;;;12.67;11.00;;;;;-0.78;97.63;97191.88;4967942;28;102019;-69
2022/12/11 01:14:18;;;;;;;;;13.33;11.00;;;;;-0.74;97.21;97201.16;4964699;28;102405;-68
2022/12/11 01:16:45;;;;;;;;;12.67;12.00;;;;;-0.93;97.01;97168.63;4963915;28;102571;-69
2022/12/11 01:19:12;;;;;;;;;13.33;10.33;;;;;-0.74;96.74;97206.47;4978605;28;104093;-69
2022/12/11 01:21:40;;;;;;;;;14.00;11.67;;;;;-0.71;97.69;97206.97;4975017;28;102038;-69
2022/12/11 01:24:07;;;;;;;;;14.67;11.00;;;;;-0.76;96.98;97203.13;4980237;28;102233;-69
2022/12/11 01:26:34;;;;;;;;;14.33;12.00;;;;;-0.77;96.82;97193.53;4977777;28;102599;-69
2022/12/11 01:29:02;;;;;;;;;11.00;9.67;;;;;-0.78;97.17;97194.53;4957398;28;103963;-69
2022/12/11 01:31:29;;;;;;;;;9.00;7.00;;;;;-0.78;97.38;97194.53;4974633;28;103434;-69
2022/12/11 01:33:56;;;;;;;;;15.00;12.00;;;;;-0.80;97.53;97191.19;4959651;28;102495;-69
2022/12/11 01:36:23;;;;;;;;;12.67;11.00;;;;;-0.77;97.30;97181.09;4975114;28;102518;-69
2022/12/11 01:38:52;;;;;;;;;13.67;11.33;;;;;-0.81;97.00;97176.28;4969400;28;104029;-69
2022/12/11 01:41:20;;;;;;;;;16.00;14.00;;;;;-0.84;97.10;97179.25;4963575;28;102642;-69
2022/12/11 01:44:06;;;;;;;;;18.33;13.67;;;;;-0.79;97.59;97176.94;4971019;28;102533;-69
2022/12/11 01:46:35;;;;;;;;;8.33;8.00;;;;;-0.77;97.77;97169.66;4969755;28;102174;-70
2022/12/11 01:49:06;;;;;;;;;15.00;13.00;;;;;-0.75;96.76;97172.97;4973306;28;104090;-69
2022/12/11 01:51:38;;;;;;;;;12.00;11.00;;;;;-0.79;96.62;97169.81;4973681;28;102621;-68
2022/12/11 01:54:10;;;;;;;;;9.00;8.00;;;;;-0.75;97.37;97165.00;4983774;28;102908;-68
2022/12/11 01:56:41;;;;;;;;;7.67;7.00;;;;;-0.70;97.25;97178.59;4972542;28;102395;-68
2022/12/11 01:59:09;;;;;;;;;12.67;9.00;;;;;-0.77;97.13;97173.16;4976877;28;108070;-68
2022/12/11 02:01:41;;;;;;;;;9.33;6.33;;;;;-0.71;97.11;97171.63;4971248;28;103831;-68
2022/12/11 02:04:10;;;;;;;;;9.00;8.00;;;;;-0.73;96.79;97168.31;4968043;28;102326;-68
2022/12/11 02:06:52;;;;;;;;;11.00;8.00;;;;;-1.00;97.17;97133.16;4967274;28;102541;-67
2022/12/11 02:09:41;;;;;;;;;5.67;2.67;;;;;-0.75;96.53;97172.97;4973864;28;108888;-68
2022/12/11 02:12:32;;;;;;;;;14.67;10.33;;;;;-0.83;96.76;97180.91;4938643;28;102388;-68
2022/12/11 02:15:31;;;;;;;;;18.67;12.33;;;;;-0.78;97.74;97181.25;4931494;28;102232;-68
2022/12/11 02:18:21;;;;;;;;;15.33;11.00;;;;;-0.86;96.61;97176.78;4954095;28;102277;-68
2022/12/11 02:21:34;;;;;;;;;13.00;12.00;;;;;-0.87;97.05;97172.47;4951814;28;108109;-68
2022/12/11 02:24:36;;;;;;;;;11.00;9.67;;;;;-0.84;97.01;97176.59;4959007;28;103837;-68
2022/12/11 02:27:43;;;;;;;;;12.00;9.00;;;;;-0.91;97.20;97179.09;4945606;28;101962;-68
2022/12/11 02:30:24;;;;;;;;;9.00;8.67;;;;;-0.88;97.77;97184.06;4955708;28;102347;-68
2022/12/11 02:32:55;;;;;;;;;11.67;9.67;;;;;-0.93;97.09;97189.88;4956758;28;103989;-68
2022/12/11 02:35:32;;;;;;;;;13.33;10.67;;;;;-0.94;97.63;97177.59;4941494;28;102937;-67
2022/12/11 02:38:09;;;;;;;;;14.33;11.00;;;;;-0.97;97.57;97180.56;4957191;28;102379;-68
2022/12/11 02:40:40;;;;;;;;;9.00;8.67;;;;;-1.00;96.98;97178.25;4955003;28;102296;-68
2022/12/11 02:43:10;;;;;;;;;15.00;12.00;;;;;-1.03;97.04;97172.44;4961244;28;103547;-68
2022/12/11 02:45:40;;;;;;;;;15.00;11.00;;;;;-1.02;97.24;97171.44;4956490;28;102960;-68
2022/12/11 02:48:10;;;;;;;;;15.00;11.00;;;;;-1.06;97.59;97163.00;4957726;28;102230;-69
2022/12/11 02:50:41;;;;;;;;;17.33;14.33;;;;;-1.07;97.01;97163.97;4958412;28;103857;-68
2022/12/11 02:53:12;;;;;;;;;13.00;10.33;;;;;-1.02;97.54;97161.66;4961894;28;108710;-68
2022/12/11 02:55:42;;;;;;;;;11.00;9.00;;;;;-1.02;97.30;97155.53;4954630;28;102169;-69
2022/12/11 02:58:22;;;;;;;;;15.67;10.33;;;;;-1.00;98.21;97151.75;4955485;28;102973;-70
2022/12/11 03:00:50;;;;;;;;;8.33;5.67;;;;;-1.06;97.39;97144.44;4958553;28;102177;-69
2022/12/11 03:03:17;;;;;;;;;10.67;6.33;;;;;-0.99;98.29;97153.38;4967765;28;103624;-69
2022/12/11 03:05:45;;;;;;;;;12.00;9.00;;;;;-1.07;97.40;97142.75;4970494;28;102596;-69
2022/12/11 03:08:17;;;;;;;;;9.00;8.67;;;;;-1.03;97.16;97152.03;4934222;28;102316;-69
2022/12/11 03:10:45;;;;;;;;;13.33;7.33;;;;;-1.01;98.15;97150.06;4956756;28;102236;-69
2022/12/11 03:13:14;;;;;;;;;11.33;9.00;;;;;-1.00;98.08;97151.75;4964680;28;103958;-69
2022/12/11 03:16:23;;;;;;;;;10.67;8.00;;;;;-0.97;97.14;97143.44;4962711;28;102152;-69
2022/12/11 03:19:21;;;;;;;;;10.33;9.00;;;;;-1.04;98.00;97137.16;4960045;28;102238;-69
2022/12/11 03:22:21;;;;;;;;;10.00;7.00;;;;;-1.04;98.21;97153.06;4969676;28;102348;-69
2022/12/11 03:24:59;;;;;;;;;14.00;11.67;;;;;-1.01;97.27;97151.91;4955995;28;108642;-69
2022/12/11 03:27:38;;;;;;;;;11.00;10.33;;;;;-1.04;97.75;97150.41;4948878;28;103348;-70
2022/12/11 03:30:13;;;;;;;;;14.67;9.33;;;;;-0.98;98.55;97162.16;4942439;28;102196;-70
2022/12/11 03:32:52;;;;;;;;;11.00;8.00;;;;;-1.04;97.96;97152.22;4948133;28;102432;-70
2022/12/11 03:35:39;;;;;;;;;11.00;9.00;;;;;-1.04;97.54;97152.22;4957796;28;109254;-70
2022/12/11 03:38:17;;;;;;;;;19.33;13.33;;;;;-1.10;98.22;97147.56;4955401;28;102299;-70
2022/12/11 03:40:47;;;;;;;;;18.33;9.00;;;;;-1.15;98.03;97132.16;4953761;28;102083;-70
2022/12/11 03:43:16;;;;;;;;;18.00;15.00;;;;;-1.14;98.57;97141.78;4959679;28;102322;-70
2022/12/11 03:45:48;;;;;;;;;20.33;15.00;;;;;-1.21;98.38;97135.44;4958642;28;103639;-70
2022/12/11 03:48:16;;;;;;;;;20.67;16.00;;;;;-1.15;98.91;97131.31;4961975;28;102183;-70
2022/12/11 03:50:46;;;;;;;;;13.33;11.00;;;;;-1.13;98.60;97127.53;4956336;28;102478;-71
2022/12/11 03:53:15;;;;;;;;;18.00;14.00;;;;;-1.12;97.97;97126.50;4957551;28;104456;-70
2022/12/11 03:55:42;;;;;;;;;21.00;12.00;;;;;-1.15;98.13;97118.91;4947360;28;109331;-70
2022/12/11 03:58:09;;;;;;;;;21.67;14.33;;;;;-1.14;97.86;97132.97;4956311;28;102565;-70
2022/12/11 04:00:37;;;;;;;;;18.67;15.00;;;;;-1.14;97.90;97119.72;4954037;28;102241;-70
2022/12/11 04:03:13;;;;;;;;;21.00;12.00;;;;;-1.13;97.68;97122.22;4938380;28;102369;-70
2022/12/11 04:05:43;;;;;;;;;14.33;11.00;;;;;-1.18;98.31;97121.88;4955944;28;108614;-69
2022/12/11 04:08:10;;;;;;;;;20.67;17.00;;;;;-1.17;97.87;97120.88;4953678;28;102265;-70
2022/12/11 04:10:39;;;;;;;;;21.00;15.67;;;;;-1.19;97.37;97122.88;4953562;28;101945;-69
2022/12/11 04:13:07;;;;;;;;;16.67;15.33;;;;;-1.18;97.40;97124.53;4940105;28;102106;-69
2022/12/11 04:15:36;;;;;;;;;22.00;17.33;;;;;-1.19;97.17;97114.91;4957419;28;103934;-70
2022/12/11 04:26:24;;;;;;;;;20.67;14.33;;;;;-1.21;96.85;97116.06;4953922;28;108618;-68
2022/12/11 04:28:51;;;;;;;;;25.67;16.33;;;;;-1.23;97.49;97115.41;4955000;28;102484;-69
2022/12/11 04:31:20;;;;;;;;;17.33;12.00;;;;;-1.19;97.13;97117.56;4956484;28;102995;-69
2022/12/11 04:33:48;;;;;;;;;19.00;14.67;;;;;-1.19;97.33;97112.25;4951783;28;102447;-69
2022/12/11 04:36:15;;;;;;;;;22.33;18.00;;;;;-1.24;97.32;97114.56;4949914;28;104069;-69
2022/12/11 04:38:42;;;;;;;;;18.67;15.33;;;;;-1.24;96.12;97117.22;4962190;28;103776;-69
2022/12/11 04:41:12;;;;;;;;;28.33;20.33;;;;;-1.27;97.29;97111.44;4959626;28;102293;-70
2022/12/11 04:43:40;;;;;;;;;17.00;11.00;;;;;-1.24;97.60;97109.28;4966555;28;102141;-70
2022/12/11 04:46:10;;;;;;;;;12.33;11.67;;;;;-1.25;97.35;97112.91;4938430;28;104047;-70
2022/12/11 04:48:38;;;;;;;;;15.67;14.33;;;;;-1.25;97.69;97106.78;4959468;28;102569;-70
2022/12/11 04:51:06;;;;;;;;;21.00;17.33;;;;;-1.31;97.58;97110.94;4959844;28;103683;-70
2022/12/11 04:53:33;;;;;;;;;18.00;15.00;;;;;-1.34;96.80;97103.28;4954891;28;101860;-70
2022/12/11 04:56:04;;;;;;;;;27.00;17.67;;;;;-1.36;96.42;97110.59;4955593;28;104055;-70
2022/12/11 04:58:31;;;;;;;;;21.00;17.00;;;;;-1.38;96.83;97104.59;4967104;28;102425;-70
2022/12/11 05:00:58;;;;;;;;;20.67;17.00;;;;;-1.63;97.27;97079.06;4963132;28;102168;-70
2022/12/11 05:03:25;;;;;;;;;25.00;21.67;;;;;-1.47;97.20;97105.59;4933260;28;102593;-69
2022/12/11 05:05:52;;;;;;;;;18.00;15.67;;;;;-1.47;96.53;97085.22;4962057;28;104389;-70
2022/12/11 05:08:20;;;;;;;;;21.00;15.67;;;;;-1.46;97.39;97094.84;4960160;28;102515;-70
2022/12/11 05:11:02;;;;;;;;;18.00;13.33;;;;;-1.48;97.70;97101.25;4944805;28;101830;-69
2022/12/11 05:13:30;;;;;;;;;26.00;18.00;;;;;-1.49;97.28;97102.28;4965878;28;102906;-69
2022/12/11 05:15:58;;;;;;;;;23.00;18.00;;;;;-1.50;96.81;97092.66;4965595;28;104561;-70
2022/12/11 05:18:25;;;;;;;;;20.67;17.00;;;;;-1.47;97.47;97097.63;4963833;28;102487;-69
2022/12/11 05:21:04;;;;;;;;;19.33;15.33;;;;;-1.48;97.25;97095.97;4961827;28;102175;-71
2022/12/11 05:23:32;;;;;;;;;17.00;14.00;;;;;-1.49;97.69;97089.03;4953083;28;102156;-70
2022/12/11 05:26:01;;;;;;;;;17.67;12.00;;;;;-1.46;97.19;97099.31;4953336;28;103980;-70
2022/12/11 05:28:32;;;;;;;;;16.33;14.00;;;;;-1.50;96.44;97088.19;4948296;28;102852;-71
2022/12/11 05:31:03;;;;;;;;;14.00;13.33;;;;;-1.49;96.33;97089.03;4955658;28;104616;-71
2022/12/11 05:33:30;;;;;;;;;13.33;11.00;;;;;-1.58;97.56;97072.28;4926656;28;102439;-71
2022/12/11 05:35:57;;;;;;;;;16.33;14.00;;;;;-1.45;96.54;97090.38;4954354;28;103615;-70
2022/12/11 05:38:25;;;;;;;;;12.00;11.00;;;;;-1.49;97.83;97079.25;4949602;28;102379;-71
2022/12/11 05:41:03;;;;;;;;;14.00;12.00;;;;;-1.49;97.64;97086.38;4963205;28;102441;-70
2022/12/11 05:43:32;;;;;;;;;24.00;17.67;;;;;-1.51;96.57;97085.69;4952365;28;102446;-70
2022/12/11 05:46:10;;;;;;;;;15.00;13.67;;;;;-1.55;95.49;97079.91;4954847;28;110295;-70
2022/12/11 05:48:37;;;;;;;;;12.00;7.67;;;;;-1.53;96.16;97083.22;4955761;28;102231;-70
2022/12/11 05:51:05;;;;;;;;;19.33;16.33;;;;;-1.54;96.75;97078.91;4959421;28;102307;-70
2022/12/11 05:53:34;;;;;;;;;19.33;16.33;;;;;-1.57;95.99;97091.66;4925394;28;101873;-70
2022/12/11 05:56:07;;;;;;;;;17.67;14.00;;;;;-1.58;95.92;97090.00;4968812;28;105466;-70
2022/12/11 05:58:34;;;;;;;;;18.67;9.67;;;;;-1.55;96.07;97095.81;4955545;28;102252;-70
2022/12/11 06:01:06;;;;;;;;;22.33;18.00;;;;;-1.56;95.75;97088.84;4954629;28;102441;-70
2022/12/11 06:03:33;;;;;;;;;16.33;13.33;;;;;-1.63;96.23;97077.25;4951298;28;103498;-70
2022/12/11 06:06:02;;;;;;;;;22.33;16.67;;;;;-1.63;96.58;97082.53;4935383;28;104094;-70
2022/12/11 06:08:29;;;;;;;;;17.00;13.67;;;;;-1.59;96.07;97083.88;4948953;28;102218;-70
2022/12/11 06:10:56;;;;;;;;;17.00;12.00;;;;;-1.58;96.30;97084.72;4952457;28;102031;-70
2022/12/11 06:13:23;;;;;;;;;13.33;12.00;;;;;-1.56;96.81;97077.41;4963706;28;102480;-70
2022/12/11 06:15:50;;;;;;;;;14.00;11.00;;;;;-1.54;95.82;97091.34;4955271;28;103364;-69
2022/12/11 06:18:17;;;;;;;;;15.67;12.67;;;;;-1.51;96.63;97091.00;4960840;28;102146;-69
2022/12/11 06:20:44;;;;;;;;;9.33;8.00;;;;;-1.53;96.71;97091.16;4955574;28;102148;-70
2022/12/11 06:23:11;;;;;;;;;14.67;12.00;;;;;-1.57;95.54;97086.34;4965120;28;102105;-69
2022/12/11 06:25:39;;;;;;;;;16.67;14.33;;;;;-1.60;96.15;97091.97;4958967;28;104009;-70
2022/12/11 06:28:07;;;;;;;;;15.00;14.00;;;;;-1.63;95.62;97094.97;4958067;28;102146;-70
2022/12/11 06:30:35;;;;;;;;;16.33;12.67;;;;;-1.62;96.06;97104.56;4938557;28;102603;-70
2022/12/11 06:33:06;;;;;;;;;22.00;15.00;;;;;-1.64;96.47;97102.06;4960362;28;102424;-70
2022/12/11 06:35:33;;;;;;;;;22.67;17.33;;;;;-1.67;96.70;97097.13;4959495;28;103928;-70
2022/12/11 06:38:07;;;;;;;;;19.67;15.67;;;;;-1.70;95.28;97101.88;4956741;28;102357;-70
2022/12/11 06:40:35;;;;;;;;;18.00;14.00;;;;;-1.69;96.40;97106.19;4954664;28;102198;-71
2022/12/11 06:43:02;;;;;;;;;13.67;10.00;;;;;-1.66;95.75;97105.88;4957353;28;103851;-71
2022/12/11 06:45:29;;;;;;;;;22.00;14.67;;;;;-1.62;95.94;97104.56;4954563;28;103988;-70
2022/12/11 06:47:57;;;;;;;;;16.33;11.00;;;;;-1.66;95.07;97105.88;4957638;28;102311;-71
2022/12/11 06:50:25;;;;;;;;;17.33;11.67;;;;;-1.64;95.75;97122.44;4958819;28;102043;-70
2022/12/11 06:52:52;;;;;;;;;20.67;16.67;;;;;-1.70;96.24;97107.19;4969519;28;102126;-71
2022/12/11 06:55:19;;;;;;;;;23.00;15.67;;;;;-1.76;95.38;97107.84;4947478;28;104217;-71
2022/12/11 06:57:45;;;;;;;;;18.67;14.00;;;;;-1.70;96.47;97117.78;4963440;28;102393;-71
2022/12/11 07:00:13;;;;;;;;;21.67;14.67;;;;;-1.68;95.92;97108.69;4958898;28;101952;-71
2022/12/11 07:02:40;;;;;;;;;18.00;12.00;;;;;-1.66;96.33;97113.81;4967016;28;102079;-70
2022/12/11 07:05:07;;;;;;;;;14.00;9.00;;;;;-1.63;96.43;97102.91;4968153;28;104358;-71
2022/12/11 07:07:35;;;;;;;;;10.00;7.33;;;;;-1.68;95.36;97118.47;4970094;28;101983;-71
2022/12/11 07:10:03;;;;;;;;;18.67;15.00;;;;;-1.66;94.80;97111.16;4965327;28;102090;-71
2022/12/11 07:12:35;;;;;;;;;13.33;10.67;;;;;-1.64;95.76;97103.91;4959779;28;103128;-71
2022/12/11 07:15:03;;;;;;;;;14.33;10.33;;;;;-1.68;96.30;97105.22;4965559;28;103959;-71
2022/12/11 07:17:31;;;;;;;;;11.67;11.00;;;;;-1.64;96.48;97103.91;4968029;28;102428;-70
2022/12/11 07:19:58;;;;;;;;;15.00;11.00;;;;;-1.70;95.06;97108.00;4968625;28;102334;-71
2022/12/11 07:22:25;;;;;;;;;11.67;10.00;;;;;-1.58;96.60;97119.16;4971222;28;102490;-71
2022/12/11 07:24:51;;;;;;;;;12.00;11.00;;;;;-1.62;95.27;97115.97;4967758;28;104005;-72
2022/12/11 07:27:18;;;;;;;;;15.67;11.33;;;;;-1.61;95.53;97119.47;4954282;28;103975;-71
2022/12/11 07:29:45;;;;;;;;;18.00;11.00;;;;;-1.65;95.69;97129.56;4958839;28;101914;-70
2022/12/11 07:32:13;;;;;;;;;28.67;20.67;;;;;-1.71;95.44;97124.91;4966464;28;102127;-71
2022/12/11 07:34:40;;;;;;;;;22.67;14.67;;;;;-1.68;95.83;97137.00;4954057;28;108591;-71
2022/12/11 07:37:07;;;;;;;;;17.00;12.00;;;;;-1.80;95.03;97121.38;4959761;28;102406;-71
2022/12/11 07:39:34;;;;;;;;;20.00;14.33;;;;;-1.71;94.24;97137.34;4953773;28;102441;-70
2022/12/11 07:42:01;;;;;;;;;22.33;17.67;;;;;-1.81;94.16;97138.28;4958968;28;102371;-71
2022/12/11 07:44:28;;;;;;;;;18.67;16.33;;;;;-1.79;94.30;97140.75;4954505;28;104097;-71
2022/12/11 07:46:55;;;;;;;;;20.67;13.67;;;;;-1.75;94.79;97136.81;4960997;28;103136;-71
2022/12/11 07:49:22;;;;;;;;;26.33;16.33;;;;;-1.93;93.58;97126.31;4959427;28;102295;-71
2022/12/11 07:51:49;;;;;;;;;17.00;14.00;;;;;-1.75;95.46;97146.56;4967745;28;102492;-70
2022/12/11 07:54:16;;;;;;;;;17.67;12.67;;;;;-1.71;94.18;97140.00;4964656;28;103966;-70
2022/12/11 07:56:44;;;;;;;;;23.00;18.33;;;;;-1.79;94.06;97140.75;4961482;28;102325;-70
2022/12/11 07:59:18;;;;;;;;;24.00;19.00;;;;;-1.86;93.80;97145.06;4956573;28;102221;-72
2022/12/11 08:01:45;;;;;;;;;17.33;15.00;;;;;-1.85;95.32;97146.72;4943750;28;102633;-70
2022/12/11 08:04:14;;;;;;;;;23.33;11.67;;;;;-1.71;94.38;97143.44;4959092;28;104275;-71
2022/12/11 08:06:42;;;;;;;;;20.00;14.33;;;;;-1.75;94.77;97135.97;4957881;28;102423;-71
2022/12/11 08:09:11;;;;;;;;;18.67;17.00;;;;;-1.81;93.81;97127.69;4959635;28;102203;-69
2022/12/11 08:11:49;;;;;;;;;17.67;12.00;;;;;-1.76;95.34;97134.34;4956770;28;102274;-70
2022/12/11 08:14:17;;;;;;;;;15.00;12.33;;;;;-1.78;95.42;97145.09;4959657;28;104225;-71
2022/12/11 08:16:44;;;;;;;;;17.00;14.00;;;;;-1.80;94.07;97145.22;4964418;28;102228;-71
2022/12/11 08:19:11;;;;;;;;;14.33;12.00;;;;;-1.80;94.80;97139.94;4960891;28;102113;-71
2022/12/11 08:21:39;;;;;;;;;17.33;15.67;;;;;-1.90;94.36;97127.81;4962766;28;102081;-71
2022/12/11 08:24:07;;;;;;;;;27.00;16.33;;;;;-1.99;93.74;97136.72;4943393;28;103983;-71
2022/12/11 08:26:34;;;;;;;;;16.00;14.67;;;;;-1.98;93.38;97139.19;4951240;28;102364;-71
2022/12/11 08:29:01;;;;;;;;;18.00;15.33;;;;;-2.03;93.70;97138.88;4953160;28;102851;-73
2022/12/11 08:31:28;;;;;;;;;18.00;17.00;;;;;-2.00;92.35;97143.84;4954043;28;101997;-73
2022/12/11 08:33:56;;;;;;;;;22.33;19.33;;;;;-2.03;92.54;97143.34;4952366;28;104066;-71
2022/12/11 08:36:23;;;;;;;;;25.00;22.33;;;;;-2.08;93.97;97146.44;4959111;28;102250;-72
2022/12/11 08:38:51;;;;;;;;;25.00;19.33;;;;;-2.04;93.60;97142.50;4952137;28;102278;-71
2022/12/11 08:41:24;;;;;;;;;21.00;17.00;;;;;-2.01;92.17;97136.88;4949633;28;104055;-71
2022/12/11 08:43:53;;;;;;;;;18.67;16.33;;;;;-1.96;92.06;97131.94;4956078;28;103878;-71
2022/12/11 08:46:23;;;;;;;;;25.00;20.00;;;;;-1.97;92.81;97135.56;4962120;28;102392;-71
2022/12/11 08:48:50;;;;;;;;;25.00;22.00;;;;;-2.09;91.46;97139.50;4956236;28;102431;-71
2022/12/11 08:51:21;;;;;;;;;33.00;23.00;;;;;-2.11;92.27;97138.81;4938322;28;102435;-71
2022/12/11 08:53:49;;;;;;;;;27.00;18.00;;;;;-2.05;93.07;97146.13;4959165;28;104183;-71
2022/12/11 08:56:19;;;;;;;;;18.67;15.00;;;;;-2.03;93.88;97148.63;4953919;28;102098;-71
2022/12/11 08:58:46;;;;;;;;;24.00;18.67;;;;;-2.04;93.94;97144.31;4965546;28;102992;-72
2022/12/11 09:01:17;;;;;;;;;17.33;14.33;;;;;-2.00;93.59;97141.19;4968900;28;102576;-72
2022/12/11 09:03:44;;;;;;;;;22.33;18.00;;;;;-2.06;92.43;97139.16;4957577;28;108775;-72
2022/12/11 09:06:14;;;;;;;;;22.33;17.67;;;;;-2.00;92.24;97143.00;4935945;28;102377;-72
2022/12/11 09:08:42;;;;;;;;;20.67;15.33;;;;;-1.99;90.33;97140.22;4966744;28;102255;-72
2022/12/11 09:11:20;;;;;;;;;22.67;18.00;;;;;-2.02;90.66;97137.84;4962170;28;102304;-72
2022/12/11 09:13:48;;;;;;;;;21.00;15.00;;;;;-2.10;90.78;97137.00;4970870;28;104038;-71
2022/12/11 09:16:18;;;;;;;;;24.00;18.67;;;;;-2.11;90.63;97136.16;4961360;28;103171;-70
2022/12/11 09:18:47;;;;;;;;;25.00;20.00;;;;;-2.05;91.12;97132.88;4964230;28;102327;-71
2022/12/11 09:21:17;;;;;;;;;17.33;11.00;;;;;-2.05;91.48;97119.66;4963851;28;102233;-70
2022/12/11 09:23:46;;;;;;;;;18.33;16.67;;;;;-1.99;91.30;97121.66;4962466;28;108910;-71
2022/12/11 09:26:16;;;;;;;;;26.00;17.67;;;;;-2.09;91.38;97120.97;4960562;28;103973;-70
2022/12/11 09:28:43;;;;;;;;;20.00;16.33;;;;;-1.99;92.45;97118.19;4955998;28;102263;-71
2022/12/11 09:31:22;;;;;;;;;29.33;19.67;;;;;-2.04;92.50;97116.03;4934929;28;102659;-71
2022/12/11 09:33:52;;;;;;;;;21.67;15.67;;;;;-1.95;92.52;97115.06;4952151;28;108754;-71
2022/12/11 09:36:19;;;;;;;;;26.67;20.67;;;;;-2.09;93.14;97113.00;4954140;28;102542;-71
2022/12/11 09:38:46;;;;;;;;;22.00;17.33;;;;;-1.98;93.59;97115.38;4956987;28;102350;-71
2022/12/11 09:41:16;;;;;;;;;31.00;24.00;;;;;-2.07;93.32;97107.56;4954299;28;102280;-71
2022/12/11 09:43:49;;;;;;;;;28.00;20.00;;;;;-1.98;92.96;97123.31;4954291;28;108715;-71
2022/12/11 09:46:16;;;;;;;;;30.33;24.67;;;;;-2.22;92.00;97096.75;4948639;28;103785;-71
2022/12/11 09:48:47;;;;;;;;;22.67;20.00;;;;;-1.90;92.57;97122.53;4956733;28;103695;-71
2022/12/11 09:51:36;;;;;;;;;21.33;17.33;;;;;-1.86;93.25;97119.41;4959430;28;103373;-71
2022/12/11 09:54:03;;;;;;;;;16.33;12.67;;;;;-1.75;91.75;97123.56;4942633;28;107631;-72
2022/12/11 09:56:35;;;;;;;;;21.33;20.67;;;;;-1.92;90.06;97114.72;4956404;28;102398;-71
2022/12/11 09:59:27;;;;;;;;;23.33;17.00;;;;;-1.88;91.06;97108.13;4958800;28;102362;-72
2022/12/11 10:01:54;;;;;;;;;29.67;23.67;;;;;-2.03;90.69;97111.56;4929080;28;102065;-71
2022/12/11 10:04:21;;;;;;;;;29.00;18.33;;;;;-1.77;90.99;97117.59;4941608;28;104198;-71
2022/12/11 10:07:05;;;;;;;;;32.33;21.67;;;;;-1.89;90.63;97100.34;4937212;28;102518;-71
2022/12/11 10:09:44;;;;;;;;;18.00;15.33;;;;;-1.70;90.18;97117.78;4935960;28;102200;-72
2022/12/11 10:12:22;;;;;;;;;14.00;12.00;;;;;-1.54;89.68;97112.53;4935981;28;101967;-72
2022/12/11 10:15:34;;;;;;;;;21.67;18.67;;;;;-1.87;88.48;97120.38;4930766;28;108670;-72
2022/12/11 10:18:05;;;;;;;;;18.33;15.67;;;;;-1.96;87.84;97112.56;4868779;28;102642;-72
2022/12/11 10:20:38;;;;;;;;;23.33;17.33;;;;;-1.91;88.36;97116.41;4920132;28;102476;-71
2022/12/11 10:23:08;;;;;;;;;21.00;17.00;;;;;-1.99;88.81;97107.59;4938209;28;102537;-70
2022/12/11 10:25:39;;;;;;;;;22.33;17.67;;;;;-2.07;90.17;97115.50;4931787;28;104132;-71
2022/12/11 10:28:13;;;;;;;;;16.33;16.33;;;;;-1.98;89.94;97125.94;4941081;28;102111;-71
2022/12/11 10:30:57;;;;;;;;;21.33;19.00;;;;;-1.93;88.94;97113.06;4936670;28;102336;-71
2022/12/11 10:33:30;;;;;;;;;18.00;17.00;;;;;-1.94;89.61;97114.09;4914447;28;103803;-71
2022/12/11 10:35:58;;;;;;;;;18.67;15.00;;;;;-2.03;89.93;97100.97;4934637;28;103208;-71
2022/12/11 10:38:37;;;;;;;;;20.33;15.67;;;;;-2.00;89.90;97104.13;4931079;28;102301;-73
2022/12/11 10:41:13;;;;;;;;;19.33;12.33;;;;;-2.02;89.79;97107.91;4932709;28;102267;-71
2022/12/11 10:43:47;;;;;;;;;23.33;15.67;;;;;-2.15;89.22;97094.28;4930609;28;102291;-71
2022/12/11 10:46:24;;;;;;;;;17.67;15.67;;;;;-1.92;90.11;97104.13;4935741;28;108656;-72
2022/12/11 10:48:56;;;;;;;;;20.00;16.00;;;;;-1.96;88.21;97094.84;4932403;28;103810;-72
2022/12/11 10:51:31;;;;;;;;;18.00;16.33;;;;;-1.97;90.45;97111.72;4929696;28;102383;-71
2022/12/11 10:54:24;;;;;;;;;13.33;10.00;;;;;-1.91;89.01;97100.50;4920972;28;102484;-72
2022/12/11 10:56:52;;;;;;;;;17.67;11.67;;;;;-1.96;89.25;97097.50;4905480;28;108453;-71
2022/12/11 10:59:48;;;;;;;;;22.00;13.33;;;;;-1.88;90.70;97096.69;4947493;28;102303;-72
2022/12/11 11:02:31;;;;;;;;;22.67;14.00;;;;;-1.86;90.25;97087.63;4941948;28;102254;-72
2022/12/11 11:05:00;;;;;;;;;20.67;14.67;;;;;-1.95;89.08;97093.88;4942992;28;102302;-72
2022/12/11 11:07:30;;;;;;;;;27.33;21.00;;;;;-2.13;88.16;97085.19;4939274;28;104047;-72
2022/12/11 11:10:10;;;;;;;;;21.00;15.33;;;;;-2.07;87.49;97084.53;4924750;28;102911;-71
2022/12/11 11:12:41;;;;;;;;;22.33;16.33;;;;;-1.99;87.91;97075.81;4938901;28;102303;-72
2022/12/11 11:15:14;;;;;;;;;24.67;21.33;;;;;-2.07;88.47;97063.34;4939638;28;102173;-72
2022/12/11 11:17:47;;;;;;;;;19.33;14.33;;;;;-1.98;87.07;97066.91;4941943;28;107550;-72
2022/12/11 11:20:26;;;;;;;;;17.33;14.00;;;;;-1.94;87.52;97058.47;4938799;28;102426;-72
2022/12/11 11:22:58;;;;;;;;;23.00;17.00;;;;;-2.07;88.92;97052.75;4937263;28;102398;-72
2022/12/11 11:25:28;;;;;;;;;27.00;17.67;;;;;-1.92;88.89;97064.41;4937361;28;102543;-72
2022/12/11 11:28:05;;;;;;;;;24.33;18.00;;;;;-1.86;89.49;97061.13;4945439;28;103971;-72
2022/12/11 11:30:37;;;;;;;;;25.00;15.67;;;;;-1.87;88.50;97058.63;4940914;28;102516;-71
2022/12/11 11:33:12;;;;;;;;;22.00;17.00;;;;;-1.88;89.68;97063.09;4935566;28;102015;-73
2022/12/11 11:35:51;;;;;;;;;20.67;17.33;;;;;-1.84;88.33;97060.94;4940300;28;102571;-72
2022/12/11 11:38:22;;;;;;;;;24.33;18.67;;;;;-2.13;90.41;97066.66;4932005;28;108684;-71
2022/12/11 11:41:16;;;;;;;;;23.00;17.00;;;;;-2.05;91.34;97063.22;4936830;28;102759;-73